Mark E Flynn — WDE5397 — position and weather

sailwx.info

Track history (hours):
 
Tides and Currents Weather Stations Pressure Air Temp Water Temp Dewpoint Dewpoint Depression Visibility Wind Speed Wind Dir Waves Ship Positions

Mark E Flynn

Owner: Maryland Marine, Inc., Orange, TX. More information available from US FCC via Universal Licensing System and Coast Guard Vessel Documentation Center.

Last reported at 2018-Feb-25 17:35 UTC. Time now 2018-Feb-25 19:22 UTC.
Position N 29°45' W 095°06'.

Length 24 m; draft 9.6 m.

Type: Towing. MMSI: 367366130.

Date/timePositionNaut miles runAvg speedWind from/ knotsBaromVisibWave heightAir tempDewpointWater temp
2018-Feb-25 17:35N 29°45' W 095°06'1 6.5
2018-Feb-25 17:30N 29°45' W 095°06'8 4.6
2018-Feb-25 15:46N 29°43' W 095°15'1 5.1
2018-Feb-25 15:30N 29°44' W 095°13'3 4.8
2018-Feb-25 14:51N 29°45' W 095°10'2 3.1
2018-Feb-25 14:19N 29°44' W 095°08'3 0.5
2018-Feb-25 08:59N 29°45' W 095°06'0 0.0
2018-Feb-24 23:32N 29°45' W 095°06'0 0.1
2018-Feb-24 22:50N 29°45' W 095°06'0 0.1
2018-Feb-24 22:24N 29°45' W 095°06'0 0.0
2018-Feb-24 21:48N 29°45' W 095°06'0 0.0
2018-Feb-24 20:32N 29°45' W 095°06'0 0.0
2018-Feb-24 20:25N 29°45' W 095°06'0 0.1
2018-Feb-24 19:59N 29°45' W 095°06'2 0.5
2018-Feb-24 15:49N 29°45' W 095°04'0 1.2
2018-Feb-24 15:30N 29°44' W 095°03'2 5.0
2018-Feb-24 15:00N 29°43' W 095°01'3 6.0
2018-Feb-24 14:30N 29°41' W 094°59'3 6.9
2018-Feb-24 14:00N 29°37' W 094°58'3 6.7
2018-Feb-24 13:31N 29°35' W 094°56'3 6.8
2018-Feb-24 13:00N 29°32' W 094°53'  
2018-Feb-20 09:02N 28°26' W 096°27'0 0.1
2018-Feb-20 08:56N 28°26' W 096°27'0 0.0
2018-Feb-20 08:20N 28°26' W 096°27'0 0.0
2018-Feb-20 07:55N 28°26' W 096°27'0 0.0
2018-Feb-20 07:25N 28°26' W 096°27'0 0.0
2018-Feb-20 06:36N 28°26' W 096°27'0 0.0
2018-Feb-20 06:24N 28°26' W 096°27'0 0.0
2018-Feb-20 05:57N 28°26' W 096°27'0 0.0
2018-Feb-20 05:05N 28°26' W 096°27'0 0.0
2018-Feb-20 04:55N 28°26' W 096°27'21 4.2
2018-Feb-19 23:56N 28°14' W 096°47'2 5.3
2018-Feb-19 23:29N 28°13' W 096°49'3 5.2
2018-Feb-19 22:58N 28°11' W 096°51'3 5.5
2018-Feb-19 22:30N 28°09' W 096°53'3 5.4
2018-Feb-19 21:58N 28°07' W 096°55'4 6.3
2018-Feb-19 21:25N 28°04' W 096°58'3 6.7
2018-Feb-19 21:00N 28°02' W 096°60'3 5.7
2018-Feb-19 20:29N 27°60' W 097°02'18 0.4
2018-Feb-17 18:14N 27°49' W 097°18'2 8.2
2018-Feb-17 18:00N 27°49' W 097°16'3 5.3
2018-Feb-17 17:29N 27°49' W 097°13'0 0.0
2018-Feb-17 16:58N 27°49' W 097°13'0 0.0
2018-Feb-17 16:30N 27°49' W 097°13'0 0.0
2018-Feb-17 15:59N 27°49' W 097°13'0 0.0
2018-Feb-17 15:29N 27°49' W 097°13'0 0.0
2018-Feb-17 14:57N 27°49' W 097°13'0 0.0
2018-Feb-17 14:30N 27°49' W 097°13'0 0.1
2018-Feb-17 13:59N 27°49' W 097°13'0 0.0
2018-Feb-17 13:29N 27°49' W 097°13'0 0.1
2018-Feb-17 13:00N 27°49' W 097°13'0 0.0
2018-Feb-17 12:29N 27°49' W 097°13'0 0.0
2018-Feb-17 12:01N 27°49' W 097°13'0 0.0
2018-Feb-17 11:29N 27°49' W 097°13'0 0.0
2018-Feb-17 10:59N 27°49' W 097°13'0 0.0
2018-Feb-17 10:29N 27°49' W 097°13'0 0.0
2018-Feb-17 10:00N 27°49' W 097°13'0 0.0
2018-Feb-17 09:30N 27°49' W 097°13'0 0.0
2018-Feb-17 09:00N 27°49' W 097°13'2 0.2
2018-Feb-17 00:37N 27°49' W 097°10'2 9.1
2018-Feb-17 00:27N 27°50' W 097°09'4 9.4
2018-Feb-17 00:01N 27°51' W 097°04'3 5.7
2018-Feb-16 23:30N 27°53' W 097°03'4 7.1
2018-Feb-16 22:59N 27°57' W 097°04'3 7.1
2018-Feb-16 22:29N 27°60' W 097°02'4 7.8
2018-Feb-16 21:59N 28°03' W 096°59'4 7.5
2018-Feb-16 21:30N 28°06' W 096°57'3 5.4
2018-Feb-16 20:57N 28°08' W 096°55'0 0.0
2018-Feb-16 20:27N 28°08' W 096°54'0 0.0
2018-Feb-16 20:00N 28°08' W 096°55'2 3.2
2018-Feb-16 19:31N 28°09' W 096°53'6 2.7
2018-Feb-16 17:12N 28°14' W 096°48'0 0.0
2018-Feb-16 16:42N 28°14' W 096°48'0 0.0
2018-Feb-16 16:26N 28°14' W 096°48'0 0.0
2018-Feb-16 15:58N 28°14' W 096°48'0 0.0
2018-Feb-16 15:25N 28°14' W 096°48'0 0.0
2018-Feb-16 14:57N 28°14' W 096°48'0 0.0
2018-Feb-16 14:30N 28°14' W 096°48'1 1.7
2018-Feb-16 13:59N 28°13' W 096°49'2 4.3
2018-Feb-16 13:29N 28°11' W 096°50'2 5.1
2018-Feb-16 13:00N 28°10' W 096°53'2 3.2
2018-Feb-16 12:29N 28°09' W 096°54'0 0.0
2018-Feb-16 12:00N 28°09' W 096°54'0 0.0
2018-Feb-16 11:30N 28°09' W 096°54'0 0.0
2018-Feb-16 10:59N 28°09' W 096°54'0 0.0
2018-Feb-16 10:30N 28°09' W 096°54'0 0.0
2018-Feb-16 10:00N 28°09' W 096°54'0 0.0
2018-Feb-16 09:29N 28°09' W 096°54'0 0.0
2018-Feb-16 09:00N 28°09' W 096°54'0 0.0
2018-Feb-16 08:29N 28°09' W 096°54'0 0.0
2018-Feb-16 08:00N 28°09' W 096°54'0 0.0
2018-Feb-16 07:29N 28°09' W 096°54'0 0.0
2018-Feb-16 07:01N 28°09' W 096°54'0 0.0
2018-Feb-16 06:30N 28°09' W 096°54'0 0.0
2018-Feb-16 05:59N 28°09' W 096°54'0 0.0
2018-Feb-16 05:29N 28°09' W 096°54'0 0.0
2018-Feb-16 04:54N 28°09' W 096°54'0 0.0
2018-Feb-16 04:30N 28°09' W 096°54'0 0.0
2018-Feb-16 03:59N 28°09' W 096°54'0 0.0
2018-Feb-16 03:28N 28°09' W 096°54'0 0.0
2018-Feb-16 02:59N 28°09' W 096°54'0 0.0
2018-Feb-16 02:30N 28°09' W 096°54'0 0.0
2018-Feb-16 02:01N 28°09' W 096°54'0 0.0
2018-Feb-16 01:29N 28°09' W 096°54'0 0.0
2018-Feb-16 01:00N 28°09' W 096°54'0 0.1
2018-Feb-16 00:29N 28°09' W 096°54'0 0.0
2018-Feb-16 00:00N 28°09' W 096°54'1 1.9
2018-Feb-15 23:29N 28°08' W 096°55'3 4.9
2018-Feb-15 22:59N 28°06' W 096°56'3 5.6
2018-Feb-15 22:30N 28°04' W 096°58'3 5.7
2018-Feb-15 22:00N 28°02' W 097°00'3 5.5
2018-Feb-15 21:30N 27°59' W 097°02'2 5.0
2018-Feb-15 21:00N 27°57' W 097°03'3 5.2
2018-Feb-15 20:30N 27°55' W 097°03'  
Track history (hours):
 
Tides and Currents Weather Stations Pressure Air Temp Water Temp Dewpoint Dewpoint Depression Visibility Wind Speed Wind Dir Waves Ship Positions

Mark E Flynn

Owner: Maryland Marine, Inc., Orange, TX. More information available from US FCC via Universal Licensing System and Coast Guard Vessel Documentation Center.

Last reported at 2018-Feb-25 17:35 UTC. Time now 2018-Feb-25 19:22 UTC.
Position N 29°45' W 095°06'.

Length 24 m; draft 9.6 m.

Type: Towing. MMSI: 367366130.

Date/timePositionNaut miles runAvg speedWind from/ knotsBaromVisibWave heightAir tempDewpointWater temp
2018-Feb-25 17:35N 29°45' W 095°06'1 6.5
2018-Feb-25 17:30N 29°45' W 095°06'8 4.6
2018-Feb-25 15:46N 29°43' W 095°15'1 5.1
2018-Feb-25 15:30N 29°44' W 095°13'3 4.8
2018-Feb-25 14:51N 29°45' W 095°10'2 3.1
2018-Feb-25 14:19N 29°44' W 095°08'3 0.5
2018-Feb-25 08:59N 29°45' W 095°06'0 0.0
2018-Feb-24 23:32N 29°45' W 095°06'0 0.1
2018-Feb-24 22:50N 29°45' W 095°06'0 0.1
2018-Feb-24 22:24N 29°45' W 095°06'0 0.0
2018-Feb-24 21:48N 29°45' W 095°06'0 0.0
2018-Feb-24 20:32N 29°45' W 095°06'0 0.0
2018-Feb-24 20:25N 29°45' W 095°06'0 0.1
2018-Feb-24 19:59N 29°45' W 095°06'2 0.5
2018-Feb-24 15:49N 29°45' W 095°04'0 1.2
2018-Feb-24 15:30N 29°44' W 095°03'2 5.0
2018-Feb-24 15:00N 29°43' W 095°01'3 6.0
2018-Feb-24 14:30N 29°41' W 094°59'3 6.9
2018-Feb-24 14:00N 29°37' W 094°58'3 6.7
2018-Feb-24 13:31N 29°35' W 094°56'3 6.8
2018-Feb-24 13:00N 29°32' W 094°53'  
2018-Feb-20 09:02N 28°26' W 096°27'0 0.1
2018-Feb-20 08:56N 28°26' W 096°27'0 0.0
2018-Feb-20 08:20N 28°26' W 096°27'0 0.0
2018-Feb-20 07:55N 28°26' W 096°27'0 0.0
2018-Feb-20 07:25N 28°26' W 096°27'0 0.0
2018-Feb-20 06:36N 28°26' W 096°27'0 0.0
2018-Feb-20 06:24N 28°26' W 096°27'0 0.0
2018-Feb-20 05:57N 28°26' W 096°27'0 0.0
2018-Feb-20 05:05N 28°26' W 096°27'0 0.0
2018-Feb-20 04:55N 28°26' W 096°27'21 4.2
2018-Feb-19 23:56N 28°14' W 096°47'2 5.3
2018-Feb-19 23:29N 28°13' W 096°49'3 5.2
2018-Feb-19 22:58N 28°11' W 096°51'3 5.5
2018-Feb-19 22:30N 28°09' W 096°53'3 5.4
2018-Feb-19 21:58N 28°07' W 096°55'4 6.3
2018-Feb-19 21:25N 28°04' W 096°58'3 6.7
2018-Feb-19 21:00N 28°02' W 096°60'3 5.7
2018-Feb-19 20:29N 27°60' W 097°02'18 0.4
2018-Feb-17 18:14N 27°49' W 097°18'2 8.2
2018-Feb-17 18:00N 27°49' W 097°16'3 5.3
2018-Feb-17 17:29N 27°49' W 097°13'0 0.0
2018-Feb-17 16:58N 27°49' W 097°13'0 0.0
2018-Feb-17 16:30N 27°49' W 097°13'0 0.0
2018-Feb-17 15:59N 27°49' W 097°13'0 0.0
2018-Feb-17 15:29N 27°49' W 097°13'0 0.0
2018-Feb-17 14:57N 27°49' W 097°13'0 0.0
2018-Feb-17 14:30N 27°49' W 097°13'0 0.1
2018-Feb-17 13:59N 27°49' W 097°13'0 0.0
2018-Feb-17 13:29N 27°49' W 097°13'0 0.1
2018-Feb-17 13:00N 27°49' W 097°13'0 0.0
2018-Feb-17 12:29N 27°49' W 097°13'0 0.0
2018-Feb-17 12:01N 27°49' W 097°13'0 0.0
2018-Feb-17 11:29N 27°49' W 097°13'0 0.0
2018-Feb-17 10:59N 27°49' W 097°13'0 0.0
2018-Feb-17 10:29N 27°49' W 097°13'0 0.0
2018-Feb-17 10:00N 27°49' W 097°13'0 0.0
2018-Feb-17 09:30N 27°49' W 097°13'0 0.0
2018-Feb-17 09:00N 27°49' W 097°13'2 0.2
2018-Feb-17 00:37N 27°49' W 097°10'2 9.1
2018-Feb-17 00:27N 27°50' W 097°09'4 9.4
2018-Feb-17 00:01N 27°51' W 097°04'3 5.7
2018-Feb-16 23:30N 27°53' W 097°03'4 7.1
2018-Feb-16 22:59N 27°57' W 097°04'3 7.1
2018-Feb-16 22:29N 27°60' W 097°02'4 7.8
2018-Feb-16 21:59N 28°03' W 096°59'4 7.5
2018-Feb-16 21:30N 28°06' W 096°57'3 5.4
2018-Feb-16 20:57N 28°08' W 096°55'0 0.0
2018-Feb-16 20:27N 28°08' W 096°54'0 0.0
2018-Feb-16 20:00N 28°08' W 096°55'2 3.2
2018-Feb-16 19:31N 28°09' W 096°53'6 2.7
2018-Feb-16 17:12N 28°14' W 096°48'0 0.0
2018-Feb-16 16:42N 28°14' W 096°48'0 0.0
2018-Feb-16 16:26N 28°14' W 096°48'0 0.0
2018-Feb-16 15:58N 28°14' W 096°48'0 0.0
2018-Feb-16 15:25N 28°14' W 096°48'0 0.0
2018-Feb-16 14:57N 28°14' W 096°48'0 0.0
2018-Feb-16 14:30N 28°14' W 096°48'1 1.7
2018-Feb-16 13:59N 28°13' W 096°49'2 4.3
2018-Feb-16 13:29N 28°11' W 096°50'2 5.1
2018-Feb-16 13:00N 28°10' W 096°53'2 3.2
2018-Feb-16 12:29N 28°09' W 096°54'0 0.0
2018-Feb-16 12:00N 28°09' W 096°54'0 0.0
2018-Feb-16 11:30N 28°09' W 096°54'0 0.0
2018-Feb-16 10:59N 28°09' W 096°54'0 0.0
2018-Feb-16 10:30N 28°09' W 096°54'0 0.0
2018-Feb-16 10:00N 28°09' W 096°54'0 0.0
2018-Feb-16 09:29N 28°09' W 096°54'0 0.0
2018-Feb-16 09:00N 28°09' W 096°54'0 0.0
2018-Feb-16 08:29N 28°09' W 096°54'0 0.0
2018-Feb-16 08:00N 28°09' W 096°54'0 0.0
2018-Feb-16 07:29N 28°09' W 096°54'0 0.0
2018-Feb-16 07:01N 28°09' W 096°54'0 0.0
2018-Feb-16 06:30N 28°09' W 096°54'0 0.0
2018-Feb-16 05:59N 28°09' W 096°54'0 0.0
2018-Feb-16 05:29N 28°09' W 096°54'0 0.0
2018-Feb-16 04:54N 28°09' W 096°54'0 0.0
2018-Feb-16 04:30N 28°09' W 096°54'0 0.0
2018-Feb-16 03:59N 28°09' W 096°54'0 0.0
2018-Feb-16 03:28N 28°09' W 096°54'0 0.0
2018-Feb-16 02:59N 28°09' W 096°54'0 0.0
2018-Feb-16 02:30N 28°09' W 096°54'0 0.0
2018-Feb-16 02:01N 28°09' W 096°54'0 0.0
2018-Feb-16 01:29N 28°09' W 096°54'0 0.0
2018-Feb-16 01:00N 28°09' W 096°54'0 0.1
2018-Feb-16 00:29N 28°09' W 096°54'0 0.0
2018-Feb-16 00:00N 28°09' W 096°54'1 1.9
2018-Feb-15 23:29N 28°08' W 096°55'3 4.9
2018-Feb-15 22:59N 28°06' W 096°56'3 5.6
2018-Feb-15 22:30N 28°04' W 096°58'3 5.7
2018-Feb-15 22:00N 28°02' W 097°00'3 5.5
2018-Feb-15 21:30N 27°59' W 097°02'2 5.0
2018-Feb-15 21:00N 27°57' W 097°03'3 5.2
2018-Feb-15 20:30N 27°55' W 097°03'  

Dump ship's entire track history